x

South Hecate Strait (46185) Wave Buoy

6:00am - Tue 27th Sep 2016 All times are PDT. -7 hours from GMT.

  • Sig Wave height 3.9ft
  • Peak Period 15s
  • Wind
    4mph, 9mph gusts
  • Sea Temp 56°f
  • Air Temp 55°f
  • Sea Pressure 1025.3mb
  • South Hecate Strait
  • South Hecate Strait

More Historic Weather Station data

Upgrade to MSW Pro to gain access to the past 30 days of data for over 8000 Wavebouys and Weather Stations around the globe.

Join Pro

Comparision Forecast

View Surf forecast
   
Tue 09/27 6:00am 4ft 15s 4 9 mph 1025.3mb 56f 55f
5:00am 3.5ft 15s 4 7 mph 1025mb 56f 55f
4:00am 3.5ft 16s 9 11 mph 1024.6mb 56f 55f
3:00am 4ft 11s 9 11 mph 1024.1mb 56f 55f
2:00am 4.5ft 16s 4 7 mph 1023.6mb 56f 55f
1:00am 4.5ft 11s 7 9 mph 1022.9mb 56f 55f
12:00am 5ft 16s 9
mph
1022.3mb 56f 55f
Mon 09/26 11:00pm 6ft 16s 4 7 mph 1021.8mb 56f 55f
10:00pm 6ft 10s 4
mph
1021.1mb 56f 54f
9:00pm 6ft 11s 2 4 mph 1020.4mb 56f 54f
8:00pm 6ft 11s 9 11 mph 1019.6mb 56f 55f
7:00pm 6ft 10s 7 9 mph 1018.9mb 56f 55f
6:00pm 6ft 9s 7 11 mph 1018.5mb 56f 55f
5:00pm 6ft 10s 4 7 mph 1018.2mb 56f 55f
4:00pm 6ft 10s 7 9 mph 1017.7mb 56f 54f
3:00pm 6ft 16s 9 11 mph 1016.9mb 56f 54f
2:00pm 5.5ft 8s 11 13 mph 1016mb 56f 54f
1:00pm 6ft 10s 13 18 mph 1015.1mb 56f 54f
12:00pm 6.5ft 8s 18 22 mph 1014.2mb 57f 53f
11:00am 7.5ft 8s 20 25 mph 1013.2mb 57f 53f
10:00am 8.5ft 7s 18 22 mph 1012.4mb 57f 52f
9:00am 9ft 7s 16 20 mph 1011.2mb 57f 55f
8:00am 11ft 8s 22 25 mph 1011.1mb 57f 55f
7:00am 11ft 9s 18 25 mph 1011.4mb 57f 57f
6:00am 11.5ft 7s 18 22 mph 1012mb 56f 58f
5:00am 11.5ft 8s 20 25 mph 1012.6mb 56f 58f
4:00am  -   -  20
mph
1053mb - -
3:00am 14ft 8s 20 25 mph 1013.5mb 56f 58f
2:00am 14ft 8s 29 38 mph 1013.4mb 56f 58f
1:00am 14.5ft 8s 31 40 mph 1013.2mb 56f 58f
12:00am 15ft 8s 34 43 mph 1013mb 57f 58f
Sun 09/25 11:00pm 14.5ft 8s 36 45 mph 1013.3mb 57f 59f
10:00pm 12.5ft 9s 36 45 mph 1013.5mb 57f 59f
9:00pm 12ft 8s 34 40 mph 1014.6mb 57f 58f
8:00pm 13ft 8s 31 40 mph 1015.9mb 57f 58f
7:00pm 12ft 8s 29 36 mph 1016.7mb 57f 56f
6:00pm 12.5ft 8s 31 38 mph 1017mb 56f 56f
5:00pm 13ft 8s 29 34 mph 1017.6mb 56f 55f
4:00pm 13ft 8s 29 36 mph 1017.9mb 55f 55f
3:00pm 13ft 8s 29 38 mph 1018.3mb 55f 55f
1:00pm 13ft 8s 27 31 mph 1018.1mb 55f 55f
11:00am 11.5ft 8s 27 34 mph 1017.8mb 56f 53f
10:00am 11ft 10s 25 29 mph 1018.9mb 56f 54f
9:00am 11ft 10s 22 29 mph 1019.1mb 56f 54f
8:00am 12ft 10s 20 25 mph 1019.2mb 56f 53f
7:00am 13ft 10s 22 27 mph 1018.6mb 57f 56f
6:00am 12.5ft 10s 25 31 mph 1017.4mb 57f 57f
5:00am 15ft 10s 29 36 mph 1015.8mb 57f 57f
4:00am 16ft 10s 29 36 mph 1015.1mb 57f 57f
3:00am 18ft 11s 36 45 mph 1013.8mb 57f 56f
2:00am 17.5ft 11s 34 43 mph 1014.1mb 57f 56f
1:00am 18.5ft 10s 36 45 mph 1014mb 57f 56f
12:00am 16.5ft 10s 36 45 mph 1013.7mb 56f 55f
Sat 09/24 11:00pm 16.5ft 10s 34 38 mph 1014.2mb 56f 55f
10:00pm 14.5ft 8s 34 43 mph 1014.2mb 56f 54f
9:00pm 13ft 8s 34 43 mph 1014.6mb 57f 54f
8:00pm 11ft 7s 34 43 mph 1015mb 57f 53f
7:00pm 9ft 6s 31 40 mph 1015.7mb 57f 52f
6:00pm 9ft 7s 34 43 mph 1017.1mb 58f 53f
5:00pm 7.5ft 6s 34 40 mph 1018.2mb 58f 52f
4:00pm  -   -  31
mph
1019.4mb 58f 53f
3:00pm 6.5ft 6s 27 34 mph 1020.4mb 58f 54f
2:00pm 6ft 5s 20 25 mph 1021.5mb 58f 54f
1:00pm 6ft 11s 22 27 mph 1021.3mb 58f 54f
12:00pm 5.5ft 11s 22 29 mph 1021.5mb 58f 54f
11:00am 5ft 9s 20 25 mph 1021.7mb 58f 54f
10:00am 5.5ft 11s 20 25 mph 1021.8mb 58f 54f
9:00am 5ft 11s 20 25 mph 1021.5mb 58f 54f
8:00am 6ft 12s 18 22 mph 1021.4mb 58f 53f
7:00am 5.5ft 12s 16 18 mph 1022.2mb 58f 55f
6:00am 6ft 12s 11 13 mph 1021.6mb 59f 56f
5:00am 6ft 11s 13 16 mph 1021.9mb 59f 57f
4:00am 6ft 10s 11 13 mph 1022.1mb 59f 57f
2:00am 6ft 11s 9 11 mph 1021.5mb 59f 58f
1:00am 6ft 11s 9 11 mph 1021.1mb 59f 58f
12:00am 6ft 12s 9 13 mph 1020.9mb 59f 58f
Fri 09/23 11:00pm 6ft 12s 9 11 mph 1019.9mb 58f 58f
10:00pm 6ft 12s 9
mph
1019.2mb 58f 58f
9:00pm 6ft 12s 11 13 mph 1018.4mb 58f 58f
8:00pm 6ft 13s 13 18 mph 1018.1mb 59f 58f
7:00pm 6.5ft 12s 11 16 mph 1017.4mb 58f 57f
6:00pm 6ft 8s 11 13 mph 1016.5mb 58f 57f
5:00pm 7ft 12s 11 13 mph 1016mb 59f 57f
4:00pm 8ft 8s 11 13 mph 1015.6mb 59f 57f
3:00pm 8ft 12s 11 13 mph 1015.1mb 59f 57f